Time;durP1;ratioP1;P1;durP2;ratioP2;P2;SDS_P1;SDS_P2;PMS_P1;PMS_P2;Temp;Humidity;BMP_temperature;BMP_pressure;BME280_temperature;BME280_humidity;BME280_pressure;Samples;Min_cycle;Max_cycle;Signal;HPM_P1;HPM_P2
2022/09/22 00:03:59;;;;;;;5.55;4.10;;;20.00;99.90;;;;;;10208440;29;20226;-80
2022/09/22 00:09:04;;;;;;;3.80;3.37;;;20.00;99.90;;;;;;10193440;29;20627;-80
2022/09/22 00:14:11;;;;;;;3.65;2.83;;;20.00;99.90;;;;;;10208171;29;20255;-80
2022/09/22 00:19:20;;;;;;;5.35;3.35;;;19.90;99.90;;;;;;10175609;29;20282;-80
2022/09/22 00:24:23;;;;;;;5.00;3.13;;;19.90;99.90;;;;;;10208289;29;20234;-80
2022/09/22 00:29:28;;;;;;;4.07;3.03;;;19.90;99.90;;;;;;10207964;29;20238;-80
2022/09/22 00:34:30;;;;;;;3.67;3.05;;;19.90;99.90;;;;;;10191331;29;20258;-80
2022/09/22 00:39:32;;;;;;;5.38;3.55;;;19.80;99.90;;;;;;10207700;29;20642;-80
2022/09/22 00:44:40;;;;;;;3.42;3.13;;;19.90;99.90;;;;;;10207757;29;20297;-80
2022/09/22 00:49:54;;;;;;;5.13;3.20;;;19.90;99.90;;;;;;10207653;29;20207;-80
2022/09/22 00:55:01;;;;;;;3.42;2.80;;;19.90;99.90;;;;;;10190157;29;20317;-81
2022/09/22 01:00:06;;;;;;;3.70;3.20;;;19.90;99.90;;;;;;10190548;29;20195;-80
2022/09/22 01:05:08;;;;;;;4.53;3.13;;;19.80;99.90;;;;;;10207356;29;20234;-80
2022/09/22 01:10:11;;;;;;;3.70;3.08;;;19.80;99.90;;;;;;10190268;29;20274;-80
2022/09/22 01:15:33;;;;;;;3.88;3.00;;;19.80;99.90;;;;;;10207058;29;20258;-80
2022/09/22 01:21:10;;;;;;;3.65;2.88;;;19.80;99.90;;;;;;10178772;29;20752;-80
2022/09/22 01:26:34;;;;;;;3.03;2.70;;;19.90;99.90;;;;;;10197353;29;20293;-80
2022/09/22 01:31:38;;;;;;;4.32;2.80;;;19.90;99.90;;;;;;10208975;29;20254;-80
2022/09/22 01:36:59;;;;;;;3.67;2.72;;;19.80;99.90;;;;;;10214309;29;20238;-80
2022/09/22 01:42:17;;;;;;;5.35;3.88;;;19.90;99.90;;;;;;10214103;29;20243;-80
2022/09/22 01:47:25;;;;;;;3.72;2.58;;;19.90;99.90;;;;;;10200438;29;20278;-80
2022/09/22 01:52:31;;;;;;;3.63;2.70;;;19.90;99.90;;;;;;10213307;29;20273;-80
2022/09/22 01:57:42;;;;;;;3.25;2.60;;;20.00;99.90;;;;;;10196324;29;20226;-80
2022/09/22 02:03:08;;;;;;;3.72;2.80;;;19.90;99.90;;;;;;10213081;29;20644;-80
2022/09/22 02:08:16;;;;;;;4.03;2.67;;;20.00;99.90;;;;;;10212924;29;20694;-80
2022/09/22 02:13:19;;;;;;;3.47;3.17;;;19.90;99.90;;;;;;10212543;29;20255;-80
2022/09/22 02:18:45;;;;;;;4.30;2.97;;;20.00;99.90;;;;;;10212346;29;20227;-80
2022/09/22 02:23:48;;;;;;;3.58;2.53;;;19.90;99.90;;;;;;10211988;29;20356;-80
2022/09/22 02:29:00;;;;;;;2.88;2.55;;;19.90;99.90;;;;;;10194578;29;20285;-80
2022/09/22 02:34:04;;;;;;;2.70;2.30;;;19.90;99.90;;;;;;10211817;29;20258;-80
2022/09/22 02:39:18;;;;;;;2.88;2.47;;;19.90;99.90;;;;;;10194729;29;20251;-78
2022/09/22 02:44:22;;;;;;;3.35;2.58;;;19.90;99.90;;;;;;10194163;29;20310;-78
2022/09/22 02:49:26;;;;;;;2.42;1.95;;;19.90;99.90;;;;;;10194125;29;20304;-79
2022/09/22 02:54:28;;;;;;;3.10;2.47;;;19.90;99.90;;;;;;10210844;29;20254;-78
2022/09/22 02:59:31;;;;;;;4.20;2.65;;;19.90;99.90;;;;;;10193439;29;20305;-78
2022/09/22 03:04:33;;;;;;;2.65;2.08;;;19.90;99.90;;;;;;10193007;29;20293;-78
2022/09/22 03:09:36;;;;;;;3.53;2.40;;;19.90;99.90;;;;;;10210334;29;20231;-78
2022/09/22 03:14:38;;;;;;;3.45;2.08;;;19.90;99.90;;;;;;10209687;29;20254;-78
2022/09/22 03:19:41;;;;;;;3.83;2.58;;;19.90;99.90;;;;;;10209772;29;20234;-78
2022/09/22 03:24:44;;;;;;;3.17;2.15;;;19.90;99.90;;;;;;10209878;29;20286;-78
2022/09/22 03:29:46;;;;;;;2.25;1.90;;;19.80;99.90;;;;;;10192205;29;20238;-78
2022/09/22 03:34:49;;;;;;;3.10;2.60;;;19.70;99.90;;;;;;10209632;29;20310;-78
2022/09/22 03:39:51;;;;;;;2.42;2.05;;;19.80;99.90;;;;;;10209207;29;20271;-78
2022/09/22 03:44:54;;;;;;;2.35;2.10;;;19.80;99.90;;;;;;10208930;29;20351;-78
2022/09/22 03:49:56;;;;;;;2.83;1.88;;;19.80;99.90;;;;;;10192445;29;20254;-78
2022/09/22 03:55:01;;;;;;;3.00;2.25;;;19.80;99.90;;;;;;10208816;29;20286;-78
2022/09/22 04:00:05;;;;;;;2.47;1.90;;;19.80;99.90;;;;;;10192452;29;20227;-78
2022/09/22 04:05:13;;;;;;;2.55;2.05;;;19.80;99.90;;;;;;10203073;29;20290;-78
2022/09/22 04:10:15;;;;;;;2.05;1.80;;;19.70;99.90;;;;;;10208437;29;20269;-78
2022/09/22 04:15:18;;;;;;;2.25;1.85;;;19.70;99.90;;;;;;10208702;29;20725;-78
2022/09/22 04:20:20;;;;;;;2.22;1.88;;;19.70;99.90;;;;;;10208537;29;20231;-78
2022/09/22 04:25:23;;;;;;;3.45;1.73;;;19.70;99.90;;;;;;10191171;29;20203;-78
2022/09/22 04:30:26;;;;;;;2.90;2.00;;;19.70;99.90;;;;;;10208332;29;20238;-78
2022/09/22 04:35:29;;;;;;;2.60;1.73;;;19.70;99.90;;;;;;10191041;29;20255;-78
2022/09/22 04:40:32;;;;;;;2.03;1.83;;;19.70;99.90;;;;;;10190133;29;20737;-78
2022/09/22 04:45:35;;;;;;;2.13;1.60;;;19.80;99.90;;;;;;10190453;29;20243;-78
2022/09/22 04:50:41;;;;;;;3.20;1.88;;;19.70;99.90;;;;;;10208086;29;20239;-78
2022/09/22 04:55:49;;;;;;;3.85;2.40;;;19.70;99.90;;;;;;10213107;29;20254;-78
2022/09/22 05:00:54;;;;;;;2.58;1.95;;;19.80;99.90;;;;;;10213762;29;20239;-78
2022/09/22 05:05:57;;;;;;;2.45;1.73;;;19.80;99.90;;;;;;10213532;29;20635;-78
2022/09/22 05:10:59;;;;;;;2.05;1.70;;;19.80;99.90;;;;;;10206235;29;20616;-78
2022/09/22 05:16:04;;;;;;;2.00;1.77;;;19.80;99.90;;;;;;10177242;29;20258;-79
2022/09/22 05:21:06;;;;;;;2.00;1.73;;;19.80;99.90;;;;;;10194495;29;20282;-80
2022/09/22 05:26:09;;;;;;;1.50;1.40;;;19.70;99.90;;;;;;10195507;29;20607;-79
2022/09/22 05:31:12;;;;;;;2.25;1.67;;;19.70;99.90;;;;;;10214799;29;20661;-79
2022/09/22 05:36:15;;;;;;;3.10;2.22;;;19.80;99.90;;;;;;10213184;29;20258;-79
2022/09/22 05:41:17;;;;;;;2.70;2.00;;;19.80;99.90;;;;;;10195713;29;20267;-79
2022/09/22 05:46:20;;;;;;;1.92;1.70;;;19.80;99.90;;;;;;10213296;29;20227;-79
2022/09/22 05:51:22;;;;;;;2.13;1.65;;;19.80;99.90;;;;;;10213537;29;20693;-79
2022/09/22 05:56:25;;;;;;;2.22;1.77;;;19.80;99.80;;;;;;10212550;29;20255;-79
2022/09/22 06:01:27;;;;;;;2.00;1.70;;;19.80;99.70;;;;;;10212485;29;20282;-79
2022/09/22 06:06:30;;;;;;;2.60;2.13;;;19.90;99.60;;;;;;10195190;29;20238;-79
2022/09/22 06:11:32;;;;;;;2.50;2.05;;;19.90;99.50;;;;;;10211809;29;20274;-79
2022/09/22 06:16:35;;;;;;;2.17;1.98;;;19.90;99.50;;;;;;10208534;29;20285;-79
2022/09/22 06:21:37;;;;;;;2.33;2.05;;;19.90;99.60;;;;;;10195620;29;20627;-80
2022/09/22 06:26:40;;;;;;;2.42;1.98;;;19.90;99.50;;;;;;10193662;29;20709;-79
2022/09/22 06:31:42;;;;;;;2.45;1.95;;;19.90;99.40;;;;;;10211336;29;20270;-79
2022/09/22 06:36:45;;;;;;;1.60;1.30;;;20.00;99.40;;;;;;10211347;29;20270;-79
2022/09/22 06:41:48;;;;;;;2.22;2.03;;;20.00;99.30;;;;;;10210660;29;20238;-79
2022/09/22 06:46:50;;;;;;;2.35;2.00;;;20.00;99.20;;;;;;10211088;29;20623;-79
2022/09/22 06:51:55;;;;;;;1.95;1.85;;;20.00;99.30;;;;;;10194522;29;20290;-79
2022/09/22 06:57:00;;;;;;;1.80;1.67;;;20.00;99.40;;;;;;10194358;29;20313;-79
2022/09/22 07:02:06;;;;;;;2.05;1.85;;;20.00;98.40;;;;;;10211171;29;20227;-80
2022/09/22 07:07:08;;;;;;;1.40;1.30;;;20.00;99.10;;;;;;10210877;29;20238;-80
2022/09/22 07:12:11;;;;;;;2.40;1.80;;;20.00;99.20;;;;;;10210933;29;20235;-80
2022/09/22 07:17:15;;;;;;;3.00;2.10;;;19.60;99.90;;;;;;10209778;29;20258;-80
2022/09/22 07:22:17;;;;;;;1.60;1.50;;;19.80;99.90;;;;;;10209845;29;20286;-79
2022/09/22 07:27:24;;;;;;;2.17;1.50;;;19.60;99.90;;;;;;10209715;29;20285;-80
2022/09/22 07:32:29;;;;;;;3.73;1.90;;;11.50;99.90;;;;;;10208985;29;20268;-80
2022/09/22 07:37:32;;;;;;;2.17;1.77;;;13.50;99.90;;;;;;10192386;29;20317;-80
2022/09/22 07:42:34;;;;;;;2.50;1.50;;;17.80;99.90;;;;;;10192390;29;20687;-80
2022/09/22 07:52:58;;;;;;;3.17;1.37;;;19.00;99.90;;;;;;10207067;29;20250;-80
2022/09/22 07:58:00;;;;;;;2.63;1.40;;;19.10;99.40;;;;;;10207260;29;20292;-80
2022/09/22 08:03:03;;;;;;;9.43;2.13;;;18.90;99.90;;;;;;10187924;29;20843;-80
2022/09/22 08:08:06;;;;;;;5.30;1.40;;;19.30;99.90;;;;;;10244751;29;20199;-80
2022/09/22 08:13:10;;;;;;;3.70;1.30;;;19.90;98.90;;;;;;10211292;29;20271;-80
2022/09/22 08:18:13;;;;;;;6.63;1.80;;;20.10;98.40;;;;;;10176182;29;20219;-80
2022/09/22 08:23:15;;;;;;;2.08;1.13;;;19.70;99.10;;;;;;10169450;29;20282;-80
2022/09/22 08:28:17;;;;;;;2.83;1.70;;;19.00;99.90;;;;;;10183991;29;20235;-80
2022/09/22 08:33:20;;;;;;;2.90;1.30;;;20.30;98.70;;;;;;10187540;29;20250;-80
2022/09/22 08:38:22;;;;;;;2.22;1.17;;;20.40;97.90;;;;;;10190328;29;20259;-80
2022/09/22 08:43:28;;;;;;;6.57;1.42;;;20.40;97.70;;;;;;10206885;29;20238;-80
2022/09/22 08:53:52;;;;;;;2.83;1.15;;;20.50;98.10;;;;;;10196547;29;20688;-80
2022/09/22 08:59:30;;;;;;;1.20;0.68;;;20.90;96.90;;;;;;10190413;29;20282;-80
2022/09/22 09:04:42;;;;;;;0.77;0.63;;;20.30;96.20;;;;;;10206672;29;20290;-80
2022/09/22 09:10:01;;;;;;;3.30;1.25;;;19.30;99.90;;;;;;10207630;29;20242;-80
2022/09/22 09:15:26;;;;;;;4.15;1.35;;;20.30;99.30;;;;;;10190085;29;20714;-80
2022/09/22 09:20:37;;;;;;;2.28;0.75;;;20.60;98.00;;;;;;10207145;29;20230;-80
2022/09/22 09:25:42;;;;;;;2.55;1.02;;;20.50;97.70;;;;;;10206094;29;20243;-80
2022/09/22 09:30:48;;;;;;;1.52;0.85;;;20.80;97.30;;;;;;10207669;29;20670;-80
2022/09/22 09:35:52;;;;;;;1.88;1.13;;;20.90;97.10;;;;;;10206896;29;20380;-80
2022/09/22 09:41:08;;;;;;;1.67;0.77;;;19.30;99.90;;;;;;10209751;29;20266;-80
2022/09/22 09:46:41;;;;;;;1.95;1.52;;;20.50;98.50;;;;;;10213100;29;20753;-80
2022/09/22 09:51:47;;;;;;;1.50;0.80;;;21.20;96.60;;;;;;10174752;29;20231;-80
2022/09/22 09:57:08;;;;;;;1.08;0.80;;;21.30;95.70;;;;;;10211282;29;20656;-80
2022/09/22 10:02:16;;;;;;;1.25;0.93;;;21.10;95.90;;;;;;10182125;29;20226;-80
2022/09/22 10:07:29;;;;;;;0.82;0.50;;;20.80;96.90;;;;;;10212924;29;20230;-80
2022/09/22 10:12:32;;;;;;;2.13;0.82;;;20.80;97.10;;;;;;10194570;29;20294;-80
2022/09/22 10:17:43;;;;;;;1.27;0.88;;;20.90;96.90;;;;;;10212182;29;20721;-80
2022/09/22 10:22:47;;;;;;;0.93;0.52;;;21.00;96.60;;;;;;10211559;29;20278;-80
2022/09/22 10:28:08;;;;;;;2.38;1.13;;;21.10;96.20;;;;;;10212171;29;20234;-80
2022/09/22 10:33:10;;;;;;;1.02;0.80;;;21.20;95.80;;;;;;10194029;29;20235;-80
2022/09/22 10:38:15;;;;;;;1.33;1.00;;;20.60;97.20;;;;;;10210150;29;20641;-80
2022/09/22 10:43:43;;;;;;;1.08;0.63;;;21.00;96.60;;;;;;10211955;29;20662;-80
2022/09/22 10:49:18;;;;;;;1.52;0.70;;;20.80;97.10;;;;;;10211769;29;20227;-80
2022/09/22 10:54:47;;;;;;;1.10;0.50;;;21.00;96.50;;;;;;10212162;29;20282;-80
2022/09/22 11:00:09;;;;;;;1.13;0.65;;;20.70;96.80;;;;;;10210652;29;20266;-80
2022/09/22 11:17:15;;;;;;;1.17;0.82;;;21.10;95.90;;;;;;10193308;29;20258;-80
2022/09/22 11:22:36;;;;;;;0.63;0.63;;;21.30;95.20;;;;;;10210697;29;20234;-80
2022/09/22 11:28:10;;;;;;;0.90;0.60;;;21.00;95.60;;;;;;10210220;29;20285;-81
2022/09/22 11:33:16;;;;;;;0.75;0.57;;;21.20;95.20;;;;;;10192161;29;20239;-80
2022/09/22 11:39:01;;;;;;;1.55;0.73;;;20.70;96.40;;;;;;10166982;29;20331;-81
2022/09/22 11:44:35;;;;;;;0.77;0.57;;;21.10;95.50;;;;;;10118335;29;20247;-80
2022/09/22 11:49:57;;;;;;;0.77;0.55;;;21.20;95.20;;;;;;10113109;29;20232;-80
2022/09/22 11:55:35;;;;;;;1.27;0.73;;;21.30;95.00;;;;;;10113971;29;20830;-80
2022/09/22 12:01:05;;;;;;;0.70;0.60;;;21.30;94.80;;;;;;10129970;29;20604;-81
2022/09/22 12:06:18;;;;;;;3.53;1.67;;;21.20;94.90;;;;;;10114799;29;20236;-80
2022/09/22 12:11:25;;;;;;;0.55;0.55;;;21.00;90.50;;;;;;10129012;29;20598;-80
2022/09/22 12:16:43;;;;;;;1.58;0.75;;;21.00;95.60;;;;;;10130780;29;20256;-79
2022/09/22 12:22:09;;;;;;;0.93;0.68;;;21.20;94.90;;;;;;10130099;29;20227;-79
2022/09/22 12:27:22;;;;;;;1.38;1.00;;;21.20;94.70;;;;;;10113659;29;20287;-79
2022/09/22 12:32:36;;;;;;;1.25;0.70;;;21.00;94.30;;;;;;10129785;29;20232;-79
2022/09/22 12:37:38;;;;;;;0.90;0.70;;;20.80;94.50;;;;;;10135068;29;20267;-79
2022/09/22 12:42:45;;;;;;;0.60;0.50;;;21.00;95.20;;;;;;10151219;29;20302;-79
2022/09/22 12:47:50;;;;;;;1.70;0.77;;;21.00;94.20;;;;;;10168355;29;20258;-79
2022/09/22 12:52:53;;;;;;;1.90;0.55;;;20.70;93.40;;;;;;10164623;29;20243;-80
2022/09/22 12:57:56;;;;;;;0.93;0.30;;;20.00;79.90;;;;;;10147204;29;20259;-80
2022/09/22 13:03:00;;;;;;;0.30;0.30;;;19.50;85.40;;;;;;10125304;29;20231;-81
2022/09/22 13:08:04;;;;;;;2.83;0.50;;;20.00;81.50;;;;;;10149037;29;20239;-80
2022/09/22 13:13:18;;;;;;;0.63;0.50;;;20.30;80.20;;;;;;10168266;29;20271;-83
2022/09/22 13:18:40;;;;;;;0.43;0.43;;;20.00;81.90;;;;;;10157828;29;20259;-81
2022/09/22 13:23:55;;;;;;;2.55;1.38;;;20.10;80.80;;;;;;10158869;29;20239;-79
2022/09/22 13:29:08;;;;;;;1.08;0.70;;;20.20;82.60;;;;;;10145870;29;20239;-79
2022/09/22 13:34:30;;;;;;;0.50;0.40;;;19.10;90.60;;;;;;10183583;29;20302;-80
2022/09/22 13:39:39;;;;;;;1.35;0.85;;;20.30;84.10;;;;;;10175352;29;20720;-80
2022/09/22 13:45:05;;;;;;;1.50;1.05;;;20.30;82.50;;;;;;10174774;29;20246;-80
2022/09/22 13:50:16;;;;;;;1.02;0.43;;;19.80;87.60;;;;;;10139555;29;20781;-80
2022/09/22 13:55:33;;;;;;;1.90;0.67;;;20.50;82.90;;;;;;10129527;29;20311;-80
2022/09/22 14:00:45;;;;;;;0.65;0.52;;;20.00;87.30;;;;;;10172962;29;20232;-79
2022/09/22 14:06:14;;;;;;;1.10;0.77;;;20.20;87.70;;;;;;10155810;29;20276;-80
2022/09/22 14:11:23;;;;;;;1.13;0.75;;;20.10;87.20;;;;;;10155993;29;20279;-80
2022/09/22 14:16:28;;;;;;;0.88;0.50;;;20.40;86.40;;;;;;10156230;29;20255;-80
2022/09/22 14:21:39;;;;;;;1.77;0.50;;;19.80;89.70;;;;;;10171876;29;20235;-80
2022/09/22 14:26:51;;;;;;;0.57;0.50;;;20.30;88.40;;;;;;10153892;29;20303;-80
2022/09/22 14:32:32;;;;;;;0.45;0.43;;;20.40;88.60;;;;;;10167232;29;20275;-81
2022/09/22 14:37:49;;;;;;;0.70;0.45;;;20.20;89.40;;;;;;10149192;29;20267;-81
2022/09/22 14:42:56;;;;;;;0.77;0.65;;;20.50;81.80;;;;;;10115346;29;20251;-81
2022/09/22 14:48:12;;;;;;;0.68;0.57;;;20.50;89.40;;;;;;10115647;29;20272;-81
2022/09/22 14:53:32;;;;;;;0.88;0.60;;;20.70;88.60;;;;;;10105856;29;20272;-81
2022/09/22 14:58:39;;;;;;;1.48;0.63;;;20.70;88.30;;;;;;10114138;29;20894;-80
2022/09/22 15:03:50;;;;;;;1.23;0.80;;;20.50;89.50;;;;;;10109148;29;20284;-80
2022/09/22 15:08:53;;;;;;;5.40;1.42;;;20.20;90.40;;;;;;10112035;29;20269;-81
2022/09/22 15:13:56;;;;;;;2.85;1.23;;;20.60;89.90;;;;;;10117241;29;20708;-81
2022/09/22 15:18:59;;;;;;;1.33;0.68;;;20.40;90.30;;;;;;10120858;29;20824;-81
2022/09/22 15:24:03;;;;;;;1.92;1.00;;;20.50;90.20;;;;;;10112520;29;20672;-81
2022/09/22 15:29:12;;;;;;;3.25;1.30;;;20.40;90.70;;;;;;10131072;29;20240;-81
2022/09/22 15:34:15;;;;;;;2.10;0.95;;;20.20;85.50;;;;;;10112837;29;20244;-81
2022/09/22 15:39:23;;;;;;;1.88;0.90;;;20.30;91.30;;;;;;10130397;29;20351;-81
2022/09/22 15:44:26;;;;;;;1.50;1.02;;;20.30;91.50;;;;;;10130579;29;20278;-80
2022/09/22 15:49:33;;;;;;;2.17;1.10;;;20.20;92.10;;;;;;10109767;29;20248;-80
2022/09/22 15:54:36;;;;;;;2.10;0.80;;;20.20;92.20;;;;;;10111969;29;20752;-80
2022/09/22 15:59:39;;;;;;;1.77;0.75;;;20.10;92.40;;;;;;10130582;29;20786;-79
2022/09/22 16:04:43;;;;;;;2.55;1.50;;;20.20;92.60;;;;;;10111143;29;20287;-81
2022/09/22 16:09:45;;;;;;;9.90;3.50;;;19.90;93.70;;;;;;10113259;29;20283;-80
2022/09/22 16:14:48;;;;;;;6.75;3.00;;;20.00;93.10;;;;;;10130419;29;20289;-80
2022/09/22 16:19:51;;;;;;;8.75;4.30;;;20.00;93.10;;;;;;10129942;29;20621;-80
2022/09/22 16:24:55;;;;;;;7.55;3.65;;;20.00;93.20;;;;;;10129998;29;20635;-80
2022/09/22 16:29:58;;;;;;;8.45;4.15;;;20.00;93.40;;;;;;10112901;29;20247;-80
2022/09/22 16:35:02;;;;;;;7.05;3.70;;;20.00;93.70;;;;;;10112706;29;20793;-80
2022/09/22 16:40:05;;;;;;;8.57;4.40;;;19.90;93.90;;;;;;10137140;29;20255;-81
2022/09/22 16:45:08;;;;;;;6.18;3.22;;;19.90;94.30;;;;;;10150889;29;20219;-80
2022/09/22 16:50:11;;;;;;;5.93;3.28;;;19.80;94.60;;;;;;10158072;29;20247;-81
2022/09/22 16:55:14;;;;;;;11.15;3.83;;;19.80;94.90;;;;;;10164749;29;20251;-80
2022/09/22 17:00:16;;;;;;;6.77;3.67;;;19.80;95.10;;;;;;10181337;29;20235;-80
2022/09/22 17:05:19;;;;;;;7.67;3.47;;;19.80;95.40;;;;;;10180857;29;20678;-80
2022/09/22 17:10:22;;;;;;;9.85;3.53;;;19.70;95.50;;;;;;10180895;29;20279;-81
2022/09/22 17:15:25;;;;;;;5.45;3.28;;;19.70;95.60;;;;;;10181183;29;20255;-81
2022/09/22 17:20:29;;;;;;;7.95;3.50;;;19.80;95.70;;;;;;10164432;29;20254;-81
2022/09/22 17:25:32;;;;;;;7.83;3.20;;;19.80;95.70;;;;;;10181319;29;20683;-81
2022/09/22 17:30:35;;;;;;;5.43;3.17;;;19.80;95.80;;;;;;10180966;29;20274;-81
2022/09/22 17:35:38;;;;;;;7.53;3.33;;;19.80;95.80;;;;;;10148455;29;20314;-83
2022/09/22 17:40:40;;;;;;;6.97;4.00;;;19.80;96.00;;;;;;10163081;29;20638;-81
2022/09/22 17:45:43;;;;;;;8.52;4.03;;;19.80;95.90;;;;;;10180105;29;20639;-82
2022/09/22 17:56:10;;;;;;;9.63;4.78;;;19.80;95.80;;;;;;10163293;29;20821;-81
2022/09/22 18:01:14;;;;;;;9.23;5.00;;;19.80;95.80;;;;;;10176878;29;20671;-82
2022/09/22 18:06:18;;;;;;;8.00;5.00;;;19.80;95.90;;;;;;10126227;29;20305;-81
2022/09/22 18:11:22;;;;;;;9.33;5.40;;;19.70;96.00;;;;;;10134919;29;20268;-81
2022/09/22 18:16:29;;;;;;;25.83;14.23;;;19.80;96.00;;;;;;10137833;29;20263;-81
2022/09/22 18:21:38;;;;;;;24.00;14.10;;;19.00;96.10;;;;;;10098102;29;20231;-81
2022/09/22 18:26:41;;;;;;;28.77;17.40;;;19.20;95.60;;;;;;10134596;29;20272;-81
2022/09/22 18:31:45;;;;;;;28.40;17.83;;;19.30;94.10;;;;;;10117283;29;20292;-80
2022/09/22 18:36:47;;;;;;;26.08;15.65;;;19.30;93.80;;;;;;10117117;23;20251;-80
2022/09/22 18:41:53;;;;;;;29.07;16.47;;;19.30;93.80;;;;;;10114711;29;20248;-81
2022/09/22 18:47:00;;;;;;;26.77;15.23;;;19.40;93.70;;;;;;10094862;29;20275;-81
2022/09/22 18:52:03;;;;;;;32.05;17.25;;;19.40;93.70;;;;;;10145208;23;20275;-84
2022/09/22 18:57:06;;;;;;;24.52;16.77;;;18.80;94.00;;;;;;10111833;29;20260;-82
2022/09/22 19:02:09;;;;;;;28.37;16.87;;;19.00;93.40;;;;;;10132211;29;20232;-82
2022/09/22 19:12:41;;;;;;;34.50;18.67;;;19.20;91.70;;;;;;10102571;29;20774;-82
2022/09/22 19:17:46;;;;;;;32.87;17.80;;;18.70;91.10;;;;;;10097200;29;20702;-82
2022/09/22 19:22:49;;;;;;;34.60;17.53;;;18.60;93.00;;;;;;10159436;29;20770;-82
2022/09/22 19:27:52;;;;;;;31.30;17.00;;;18.80;92.90;;;;;;10145145;29;20235;-82
2022/09/22 19:32:54;;;;;;;26.70;17.40;;;19.00;92.60;;;;;;10132415;29;20651;-82
2022/09/22 19:37:57;;;;;;;29.65;16.20;;;19.30;92.10;;;;;;10131205;29;20308;-81
2022/09/22 19:43:03;;;;;;;24.15;14.70;;;19.40;91.80;;;;;;10121072;29;20232;-81
2022/09/22 19:48:05;;;;;;;24.30;16.17;;;19.60;91.50;;;;;;10091526;29;20212;-82
2022/09/22 19:53:08;;;;;;;24.25;14.43;;;19.70;91.30;;;;;;10120031;29;20327;-81
2022/09/22 19:58:10;;;;;;;27.65;15.70;;;19.70;91.10;;;;;;10125728;29;20288;-81
2022/09/22 20:03:13;;;;;;;26.88;15.85;;;19.80;90.90;;;;;;10129031;29;20239;-80
2022/09/22 20:08:16;;;;;;;24.85;16.15;;;19.90;90.90;;;;;;10128694;29;20311;-80
2022/09/22 20:18:40;;;;;;;19.92;13.68;;;19.90;90.80;;;;;;10106795;29;20570;-80
2022/09/22 20:23:43;;;;;;;24.95;14.45;;;19.90;90.90;;;;;;10069064;29;20243;-81
2022/09/22 20:28:46;;;;;;;20.25;13.95;;;19.90;90.90;;;;;;10101276;29;20236;-81
2022/09/22 20:33:49;;;;;;;19.65;13.65;;;19.90;91.00;;;;;;10107793;29;20276;-81
2022/09/22 20:38:52;;;;;;;21.10;15.43;;;19.90;91.00;;;;;;10112051;29;20255;-82
2022/09/22 20:43:54;;;;;;;18.38;12.73;;;19.80;91.10;;;;;;10121904;29;20299;-80
2022/09/22 20:48:57;;;;;;;19.60;13.38;;;19.80;91.10;;;;;;10125523;29;20256;-82
2022/09/22 20:54:00;;;;;;;16.27;12.75;;;19.80;91.20;;;;;;10126561;29;20809;-82
2022/09/22 20:59:03;;;;;;;18.83;13.30;;;19.80;91.30;;;;;;10111271;29;20303;-83
2022/09/22 21:04:05;;;;;;;19.38;13.57;;;19.80;91.20;;;;;;10125563;29;20232;-84
2022/09/22 21:14:34;;;;;;;19.00;12.88;;;19.60;93.90;;;;;;10107447;29;20291;-85
2022/09/22 21:19:37;;;;;;;19.48;12.85;;;19.80;93.00;;;;;;10096024;29;20255;-83
2022/09/22 21:24:41;;;;;;;21.40;12.80;;;19.80;92.60;;;;;;10103631;29;20291;-84
2022/09/22 21:29:44;;;;;;;19.73;13.27;;;19.70;92.70;;;;;;10140286;29;20231;-83
2022/09/22 21:34:46;;;;;;;19.27;13.10;;;19.80;92.60;;;;;;10131589;29;20287;-82
2022/09/22 21:39:49;;;;;;;21.77;12.68;;;19.80;92.40;;;;;;10117258;29;20260;-82
2022/09/22 21:44:51;;;;;;;21.20;14.10;;;19.70;92.00;;;;;;10096473;29;20236;-82
2022/09/22 21:49:54;;;;;;;20.95;13.48;;;19.80;92.00;;;;;;10155864;29;20548;-82
2022/09/22 21:54:56;;;;;;;18.57;13.27;;;19.70;91.80;;;;;;10119767;29;20267;-82
2022/09/22 21:59:59;;;;;;;21.85;14.68;;;19.70;91.80;;;;;;10135048;29;20256;-82
2022/09/22 22:05:01;;;;;;;23.35;14.70;;;19.70;91.60;;;;;;10135504;29;20749;-82
2022/09/22 22:10:04;;;;;;;21.90;13.73;;;19.80;91.50;;;;;;10117453;29;20244;-82
2022/09/22 22:15:07;;;;;;;21.33;14.57;;;19.80;91.40;;;;;;10107954;29;20235;-82
2022/09/22 22:20:09;;;;;;;22.20;14.23;;;19.80;91.20;;;;;;10153805;29;20262;-82
2022/09/22 22:25:16;;;;;;;21.13;15.00;;;19.80;91.10;;;;;;10125425;29;20260;-82
2022/09/22 22:30:18;;;;;;;20.85;14.55;;;19.80;91.00;;;;;;10132444;29;20283;-82
2022/09/22 22:35:21;;;;;;;19.17;13.68;;;19.80;90.90;;;;;;10157079;29;20695;-83
2022/09/22 22:40:23;;;;;;;17.58;12.80;;;19.80;90.90;;;;;;10135242;29;20264;-83
2022/09/22 22:45:26;;;;;;;18.70;14.07;;;19.80;90.90;;;;;;10132552;29;20236;-83
2022/09/22 22:50:31;;;;;;;22.08;14.40;;;19.70;90.80;;;;;;10133303;29;20230;-82
2022/09/22 22:55:34;;;;;;;18.08;12.75;;;19.70;90.70;;;;;;10128341;29;20293;-84
2022/09/22 23:00:38;;;;;;;21.58;14.57;;;19.70;90.60;;;;;;10154860;29;20279;-83
2022/09/22 23:05:41;;;;;;;18.67;13.55;;;19.70;90.50;;;;;;10171537;29;20203;-83
2022/09/22 23:10:44;;;;;;;22.20;13.98;;;19.70;90.40;;;;;;10128904;29;20272;-83
2022/09/22 23:15:50;;;;;;;21.15;13.75;;;19.70;90.50;;;;;;10109404;29;20232;-83
2022/09/22 23:20:55;;;;;;;18.30;12.55;;;19.70;90.20;;;;;;10167990;29;20279;-83
2022/09/22 23:25:58;;;;;;;18.58;12.77;;;19.70;90.20;;;;;;10156953;29;20232;-83
2022/09/22 23:31:12;;;;;;;20.65;12.85;;;19.70;90.10;;;;;;10131515;29;20240;-83
2022/09/22 23:36:18;;;;;;;20.93;13.40;;;19.80;90.00;;;;;;10131844;29;20231;-83
2022/09/22 23:41:21;;;;;;;22.03;13.53;;;19.70;89.60;;;;;;10113567;29;20577;-81
2022/09/22 23:46:23;;;;;;;18.83;12.93;;;19.70;89.20;;;;;;10151461;29;20734;-81
2022/09/22 23:51:26;;;;;;;15.50;11.63;;;19.80;89.10;;;;;;10153231;29;20290;-81
2022/09/22 23:56:28;;;;;;;18.10;12.70;;;19.70;88.80;;;;;;10156763;29;20229;-83
